Belleville, Canada
Current Conditions -  °F | °C
As of 6:00 PM on Friday 31 Oct 2014 (Local Time) from CYTR Reporting Station
Light Rain Light Rain  
Wind Chill: 35°   Ceiling: 2500
Heat Index: 41°   Visibility: 12mi
Dew Point: 39°   Wind: 10mph
Humidity: 93%   Direction: 50°NE
Pressure: 29.98"   Gusts: NA
Location:  44.16°N, 77.38°W
Report Text: CYTR 312200Z 05009KT 12SM -RA OVC025 05/04 A2998 RMK SC8 SLP156
Loading
Personal Weather Stations






























Interactive Weather Map
Tropical Storm Tracking
New forecast layout! Learn more

10-Day Weather Forecast

Advertisements
Track Severe Weather on mobile